ADDS METAR Data INFO
IDs: Format: Raw Decoded Include TAF

Data at: 1515 UTC 11 Dec 2017

PATO 111453Z AUTO 09021G48KT 5SM -RA OVC031 06/02 A2920 RMK AO2 PK WND 07049/1415 PRESRR SLP889 P0008 60034 T00610017 53080 TSNO
PATO 111353Z AUTO 10021G45KT 4SM RA OVC030 06/02 A2911 RMK AO2 PK WND 09051/1317 PRESRR SLP858 P0013 T00610022 TSNO
PATO 111345Z AUTO 09024G50KT 3SM -RA OVC029 06/02 A2909 RMK AO2 PK WND 09051/1317 PRESRR P0012 T00610017 TSNO
PATO 111253Z AUTO 09024G52KT 060V120 5SM -RA OVC035 07/02 A2903 RMK AO2 PK WND 07052/1253 SLP830 P0013 T00720022 TSNO
PATO 111157Z AUTO 09021G51KT 060V140 3SM RA OVC030 08/04 A2897 RMK AO2 PK WND 13050/1155 P0001 T00780039 TSNO
PATO 111153Z AUTO 10030G52KT 2 1/2SM RA OVC028 08/04 A2896 RMK AO2 PK WND 11057/1055 SLP809 P0020 60169 70390 T00780039 10078 20039 56010 TSNO
PATO 111144Z AUTO 08025G52KT 2 1/2SM RA OVC028 08/04 A2896 RMK AO2 PK WND 11057/1055 P0017 T00780039 TSNO
PATO 111114Z AUTO 11025G54KT 2 1/2SM RA OVC030 07/04 A2897 RMK AO2 PK WND 11057/1055 P0006 T00720039 TSNO
PATO 111053Z AUTO 10025G51KT 070V170 3SM RA BKN028 OVC035 08/04 A2897 RMK AO2 PK WND 14056/1009 SLP812 P0016 T00780039 TSNO
PATO 111033Z AUTO 11028G55KT 3SM RA OVC028 08/04 A2896 RMK AO2 PK WND 14056/1009 P0011 T00780039 TSNO
PATO 111018Z AUTO 08021G56KT 030V100 3SM RA OVC030 07/04 A2899 RMK AO2 PK WND 14056/1009 P0007 T00720039 TSNO
PATO 111002Z AUTO 12020G44KT 090V150 3SM RA OVC028 07/04 A2898 RMK AO2 PK WND 11044/1000 P0003 T00720039 TSNO
PATO 110953Z AUTO 10018G49KT 080V170 2 1/2SM RA OVC028 07/04 A2898 RMK AO2 PK WND 11055/0920 SLP813 P0030 T00720039 TSNO
PATO 110907Z AUTO 09023G58KT 040V120 2SM +RA BKN027 OVC035 07/04 A2899 RMK AO2 PK WND 07044/0906 P0008 T00720039 TSNO
PATO 110853Z AUTO 09019G46KT 020V140 1 3/4SM +RA OVC025 07/04 A2899 RMK AO2 PK WND 13064/0809 SLP819 P0039 60103 T00670039 400720028 56054 TSNO
PATO 110753Z AUTO 12018G50KT 070V160 1 1/2SM +RA BKN020 OVC032 06/03 A2900 RMK AO2 PK WND 09050/0744 PRESFR SLP822 P0036 T00610033 TSNO
PATO 110726Z AUTO 11019G45KT 070V150 1 3/4SM +RA BKN020 OVC026 06/02 A2906 RMK AO2 PK WND 11045/0724 P0018 T00560022 TSNO
PATO 110653Z AUTO 2SM +RA BR OVC019 04/02 A2910 RMK AO2 PK WND 17039/0645 SLP855 P0028 T00440022 TSNO
PATO 110618Z AUTO 13019G38KT 100V170 2 1/2SM RA BR BKN019 OVC025 04/02 A2913 RMK AO2 PK WND 12038/0618 P0009 T00390017 TSNO
PATO 110553Z AUTO 13013G28KT 3SM RA BR OVC017 04/02 A2915 RMK AO2 PK WND 14028/0529 PRESFR SLP873 P0020 60123 T00390017 10061 20028 56056 TSNO
PATO 110548Z AUTO 13013G28KT 080V160 2 1/2SM RA BR OVC017 04/02 A2916 RMK AO2 PK WND 14028/0529 PRESFR P0018 TSNO
PATO 110539Z AUTO 13012G27KT 3SM RA BR OVC017 03/01 A2918 RMK AO2 PK WND 14028/0529 PRESFR P0016 T00330011 TSNO
PATO 110532Z AUTO 13010G28KT 090V160 2 1/2SM RA BR OVC017 03/01 A2920 RMK AO2 PK WND 14028/0529 P0014 T00330011 TSNO
PATO 110453Z AUTO 13008G24KT 070V150 3SM +RA BR OVC016 03/01 A2925 RMK AO2 SLP904 P0026 T00330011 TSNO
PATO 110353Z AUTO 13013G28KT 3SM +RA BR OVC015 03/01 A2932 RMK AO2 PK WND 13032/0317 SLP929 P0029 T00330011 TSNO
PATO 110345Z AUTO 14012G28KT 3SM RA BR OVC015 03/01 A2933 RMK AO2 PK WND 13032/0317 PRESFR P0025 T00330011 TSNO
PATO 110336Z AUTO 13013G31KT 2 1/2SM +RA BR OVC017 03/01 A2935 RMK AO2 PK WND 13032/0317 P0021 T00330011 TSNO
PATO 110253Z AUTO 3SM RA BR BKN017 OVC024 03/01 A2940 RMK AO2 PK WND 17036/0205 SLP956 P0021 60048 T00330011 56030 TSNO
PATO 110217Z AUTO 13015G33KT 2 1/2SM RA BKN021 OVC029 05/02 A2942 RMK AO2 PK WND 17036/0205 P0008 T00500017 TSNO
PATO 110153Z AUTO 12017G42KT 3SM RA BKN024 OVC028 06/02 A2944 RMK AO2 PK WND 10054/0141 SLP970 P0016 T00560017 TSNO
PATO 110148Z AUTO 3SM RA BKN024 OVC030 05/02 A2944 RMK AO2 PK WND 10054/0141 PRESFR P0015 TSNO
PATO 110130Z AUTO 12013G51KT 080V180 2 1/2SM RA BKN025 OVC034 06/02 A2947 RMK AO2 PK WND 08052/0104 P0009 T00560022 TSNO
PATO 110053Z AUTO 08025G53KT 040V130 4SM RA OVC027 06/02 A2949 RMK AO2 PK WND 08053/0051 PRESFR SLP986 P0011 T00560017 TSNO
PATO 110022Z AUTO 3SM -RA OVC025 06/02 A2954 RMK AO2 PK WND 08042/0019 PRESFR P0006 T00560017 TSNO
PATO 102353Z AUTO 09017G43KT 040V150 2SM RA OVC025 05/02 A2958 RMK AO2 PK WND 11046/2323 PRESFR SLP019 P0012 60059 T00500022 10061 20044 58064 TSNO
PATO 102339Z AUTO 12014G37KT 040V160 2SM RA OVC025 05/02 A2960 RMK AO2 PK WND 11046/2323 PRESFR P0010 T00500017 TSNO
PATO 102330Z AUTO 12013G46KT 1 3/4SM RA OVC025 05/02 A2961 RMK AO2 PK WND 11046/2323 VIS 1 1/4V2 1/2 PRESFR P0008 T00500017 TSNO
PATO 102311Z AUTO 12017G37KT 090V180 2 1/2SM RA FEW021 OVC026 06/02 A2965 RMK AO2 PK WND 08043/2300 P0003 T00560017 TSNO
PATO 102253Z AUTO 13014G39KT 100V190 4SM -RA OVC026 05/02 A2967 RMK AO2 PK WND 07048/2235 PRESFR SLP047 P0010 T00500017 TSNO
PATO 102215Z AUTO 09019G41KT 040V130 2 1/2SM RA OVC027 06/02 A2973 RMK AO2 PK WND 08044/2202 P0003 T00610017 TSNO
PATO 102153Z AUTO 09018G39KT 050V130 8SM -RA BKN026 OVC034 06/01 A2973 RMK AO2 PK WND 11049/2109 PRESFR SLP069 P0008 T00610011 TSNO
PATO 102133Z AUTO 6SM -RA OVC025 06/02 A2977 RMK AO2 PK WND 11049/2109 P0008 T00560017 TSNO
PATO 102120Z AUTO 11019G41KT 2SM RA BKN022 OVC028 05/02 A2978 RMK AO2 PK WND 11049/2109 VIS 1 1/2V2 1/2 P0007 T00500017 TSNO
PATO 102102Z AUTO 11025G46KT 080V140 1 3/4SM RA BKN024 OVC029 05/02 A2978 RMK AO2 PK WND 07046/2102 P0002 T00500017 TSNO
PATO 102053Z AUTO 11019G56KT 040V140 8SM -RA OVC026 06/02 A2977 RMK AO2 PK WND 10056/2050 SLP083 P0013 60029 T00560017 58004 TSNO
PATO 102038Z AUTO 07027G49KT 3SM -RA OVC024 06/02 A2978 RMK AO2 PK WND 12051/2006 P0013 T00560017 TSNO
PATO 102020Z AUTO 09025G48KT 1 1/2SM +RA OVC024 05/02 A2979 RMK AO2 PK WND 12051/2006 P0008 T00500017 TSNO
PATO 102002Z AUTO 09024G44KT 2SM RA OVC022 06/02 A2978 RMK AO2 PK WND 12044/2002 P0003 T00560017 TSNO
PATO 101953Z AUTO 09018G47KT 070V140 1 3/4SM RA OVC022 05/02 A2979 RMK AO2 PK WND 14048/1922 SLP087 P0010 T00500017 TSNO
PATO 101935Z AUTO 09023G44KT 2SM RA BKN022 OVC030 05/02 A2979 RMK AO2 PK WND 14048/1922 P0004 T00500017 TSNO
PATO 101927Z AUTO 08020G48KT 3SM -RA BKN026 OVC035 06/02 A2979 RMK AO2 PK WND 14048/1922 P0002 T00560017 TSNO
PATO 101915Z AUTO 09020G43KT 6SM -RA BKN030 OVC038 06/02 A2980 RMK AO2 PK WND 13047/1858 P0001 T00560017 TSNO
PATO 101903Z AUTO 09023G47KT 4SM -RA OVC028 06/02 A2979 RMK AO2 PK WND 13047/1858 P0001 T00560017 TSNO
PATO 101853Z AUTO 10018G40KT 060V130 6SM -RA OVC030 06/02 A2979 RMK AO2 PK WND 08045/1835 SLP088 P0006 T00560017 TSNO
PATO 101827Z AUTO 09019G36KT 5SM -RA BKN028 06/01 A2980 RMK AO2 PK WND 10041/1801 P0003 T00560011 TSNO
PATO 101753Z AUTO 10021G40KT 4SM -RA FEW025 BKN033 OVC075 06/02 A2979 RMK AO2 PK WND 11047/1729 RAB1654 SLP087 P0002 60039 T00560017 10067 20056 51035 TSNO
PATO 101653Z AUTO 11019G43KT 080V140 10SM SCT031 BKN040 OVC055 06/01 A2977 RMK AO2 PK WND 10048/1610 RAE38 SLP081 P0002 T00610011 TSNO
PATO 101553Z AUTO 10018G43KT 6SM -RA BKN030 OVC039 06/02 A2974 RMK AO2 PK WND 08047/1525 PRESRR SLP071 P0004 T00610017 TSNO
PATO 101453Z AUTO 09025G46KT 4SM -RA OVC030 06/02 A2968 RMK AO2 PK WND 11051/1428 SLP052 P0010 60031 T00610017 53050 TSNO
PATO 101437Z AUTO 09018G51KT 4SM RA OVC028 06/02 A2967 RMK AO2 PK WND 11051/1428 P0008 T00610022 TSNO
PATO 101353Z AUTO 09022G47KT 4SM RA FEW028 OVC033 06/03 A2962 RMK AO2 PK WND 12051/1317 SLP029 P0011 T00610028 TSNO
PATO 101337Z AUTO 10019G47KT 060V150 4SM -RA OVC031 07/03 A2962 RMK AO2 PK WND 12051/1317 PRESRR P0009 T00670028 TSNO
PATO 101253Z AUTO 11022G46KT 3SM -RA OVC029 07/03 A2959 RMK AO2 PK WND 11051/1217 SLP021 P0010 T00670028 TSNO
PATO 101153Z AUTO 10020G46KT 050V120 4SM -RA OVC029 07/03 A2953 RMK AO2 PK WND 07052/1112 SLP002 P0011 60157 70181 T00670028 10072 20033 53042 TSNO
PATO 101133Z AUTO 08022G45KT 050V110 4SM RA OVC029 07/03 A2952 RMK AO2 PK WND 07052/1112 P0008 T00670028 TSNO
PATO 101053Z AUTO 11021G52KT 060V140 4SM RA OVC033 07/03 A2946 RMK AO2 PK WND 11062/0954 SLP977 P0020 T00670028 TSNO
PATO 101050Z AUTO 10024G51KT 060V160 4SM RA FEW024 OVC033 07/03 A2947 RMK AO2 PK WND 11062/0954 P0020 TSNO
PATO 101032Z AUTO 11014G56KT 060V150 3SM RA OVC027 07/03 A2945 RMK AO2 PK WND 11062/0954 P0016 T00720033 TSNO
PATO 100953Z AUTO 11031G61KT 2 1/2SM -RA OVC021 07/04 A2941 RMK AO2 PK WND 06066/0934 SLP959 P0019 T00720039 TSNO
PATO 100904Z AUTO 09024G50KT 040V150 2SM +RA OVC025 07/04 A2939 RMK AO2 PK WND 11050/0901 P0005 T00720039 TSNO
PATO 100853Z AUTO 11020G62KT 1 1/2SM +RA BKN025 OVC031 07/04 A2938 RMK AO2 PK WND 05062/0844 SLP948 P0046 60107 T00670039 400720000 53011 TSNO
PATO 100753Z AUTO 09026G60KT 1 3/4SM +RA BKN026 OVC033 07/04 A2935 RMK AO2 PK WND 09060/0748 SLP940 P0039 T00670039 TSNO
PATO 100653Z AUTO 13013G33KT 100V160 2SM +RA BR BKN024 OVC030 06/04 A2934 RMK AO2 PK WND 11039/0642 SLP938 P0022 T00610039 TSNO
PATO 100639Z AUTO 14018G35KT 2 1/2SM RA BKN025 OVC031 06/03 A2935 RMK AO2 PK WND 13035/0636 P0014 T00610033 TSNO
PATO 100553Z AUTO 14008G15KT 3SM RA BR FEW005 BKN024 OVC031 03/02 A2935 RMK AO2 UPE21RAB05 SLP940 P0018 60022 T00330022 10044 20000 58017 TSNO
PATO 100546Z AUTO VRB05KT 3SM +RA BR SCT005 OVC024 02/02 A2935 RMK AO2 UPE21RAB05 P0015 T00220017 TSNO
PATO 100458Z AUTO 00000KT 5SM UP BR BKN006 BKN011 OVC044 01/M01 A2936 RMK AO2 P0000 T00061006 TSNO
PATO 100453Z AUTO 00000KT 5SM UP BR SCT007 SCT011 OVC041 00/00 A2936 RMK AO2 RAE17UPB17 SLP944 P0003 T00000000 TSNO
PATO 100414Z AUTO 28005KT 6SM -RA BR SCT003 BKN031 OVC043 00/M01 A2938 RMK AO2 P0001 T00001006 TSNO
PATO 100353Z AUTO VRB04KT 6SM -RA BR BKN003 OVC016 01/00 A2939 RMK AO2 UPB28E40 SLP953 P0001 T00060000 TSNO
PATO 100342Z AUTO 30005KT 5SM -RA BR BKN003 OVC030 01/01 A2940 RMK AO2 UPB28E40 P0000 T00110006 TSNO